Time;durP1;ratioP1;P1;durP2;ratioP2;P2;SDS_P1;SDS_P2;PMS_P1;PMS_P2;Temp;Humidity;BMP_temperature;BMP_pressure;BME280_temperature;BME280_humidity;BME280_pressure;Samples;Min_cycle;Max_cycle;Signal;HPM_P1;HPM_P2
2022/02/16 00:00:11;;;;;;;0.00;0.00;;;6.30;99.90;;;;;;5073117;28;20138;-83
2022/02/16 00:02:38;;;;;;;0.10;0.10;;;6.40;99.90;;;;;;5073187;28;20048;-82
2022/02/16 00:05:15;;;;;;;0.10;0.10;;;6.30;99.90;;;;;;5106075;28;20447;-82
2022/02/16 00:07:42;;;;;;;0.10;0.10;;;6.30;99.90;;;;;;5089545;28;20107;-82
2022/02/16 00:10:11;;;;;;;0.10;0.10;;;6.30;99.90;;;;;;5089287;28;20079;-82
2022/02/16 00:12:40;;;;;;;0.08;0.08;;;6.30;99.90;;;;;;5089211;28;20036;-82
2022/02/16 00:15:13;;;;;;;0.10;0.10;;;6.30;99.90;;;;;;5073497;28;20032;-82
2022/02/16 00:17:41;;;;;;;0.00;0.00;;;6.30;99.90;;;;;;5073802;28;20481;-82
2022/02/16 00:20:09;;;;;;;0.00;0.00;;;6.30;99.90;;;;;;5106322;28;20504;-82
2022/02/16 00:22:36;;;;;;;0.10;0.10;;;6.30;99.90;;;;;;5089023;28;20048;-82
2022/02/16 00:25:03;;;;;;;0.10;0.10;;;6.30;99.90;;;;;;5072771;28;20135;-82
2022/02/16 00:27:30;;;;;;;0.10;0.10;;;6.20;99.90;;;;;;5088925;28;20475;-82
2022/02/16 00:29:57;;;;;;;0.10;0.10;;;6.30;99.90;;;;;;5088975;28;20508;-82
2022/02/16 00:32:24;;;;;;;0.55;0.52;;;6.30;99.90;;;;;;5072314;28;20037;-82
2022/02/16 00:34:53;;;;;;;0.10;0.10;;;6.20;99.90;;;;;;5072610;28;20032;-82
2022/02/16 00:37:21;;;;;;;0.10;0.10;;;6.20;99.90;;;;;;5073030;28;20090;-82
2022/02/16 00:39:47;;;;;;;0.10;0.10;;;6.20;99.90;;;;;;5089137;28;20036;-82
2022/02/16 00:42:14;;;;;;;0.10;0.10;;;6.20;99.90;;;;;;5072887;28;20043;-82
2022/02/16 00:44:41;;;;;;;0.10;0.10;;;6.20;99.90;;;;;;5072638;28;20367;-82
2022/02/16 00:47:08;;;;;;;0.10;0.10;;;6.20;99.90;;;;;;5089623;28;20119;-82
2022/02/16 00:49:34;;;;;;;0.10;0.10;;;6.10;99.90;;;;;;5072323;28;20052;-82
2022/02/16 00:52:03;;;;;;;0.10;0.10;;;6.10;99.90;;;;;;5105977;28;20048;-82
2022/02/16 00:54:30;;;;;;;0.10;0.10;;;6.10;99.90;;;;;;5088881;28;20048;-82
2022/02/16 00:57:00;;;;;;;0.03;0.03;;;6.10;99.90;;;;;;5089085;28;20037;-82
2022/02/16 00:59:28;;;;;;;0.10;0.10;;;6.10;99.90;;;;;;5088565;28;20040;-82
2022/02/16 01:01:55;;;;;;;0.10;0.10;;;6.10;99.90;;;;;;5072369;28;20044;-82
2022/02/16 01:04:23;;;;;;;0.10;0.10;;;6.80;99.90;;;;;;5055536;28;20044;-82
2022/02/16 01:06:53;;;;;;;0.10;0.10;;;6.20;99.90;;;;;;5072566;28;20409;-83
2022/02/16 01:09:20;;;;;;;0.10;0.10;;;6.10;99.90;;;;;;5088702;28;20498;-83
2022/02/16 01:11:47;;;;;;;0.10;0.10;;;6.10;99.90;;;;;;5090147;28;20087;-83
2022/02/16 01:14:14;;;;;;;0.10;0.10;;;6.10;99.90;;;;;;5076105;28;20506;-83
2022/02/16 01:16:40;;;;;;;0.10;0.10;;;6.10;99.90;;;;;;5109203;28;20071;-83
2022/02/16 01:19:07;;;;;;;0.10;0.10;;;6.10;99.90;;;;;;5076048;28;20081;-83
2022/02/16 01:21:34;;;;;;;0.10;0.10;;;6.10;99.90;;;;;;5075814;28;20040;-83
2022/02/16 01:24:01;;;;;;;0.10;0.10;;;6.10;99.90;;;;;;5075892;28;20041;-83
2022/02/16 01:26:27;;;;;;;0.10;0.10;;;6.10;99.90;;;;;;5108774;28;20048;-83
2022/02/16 01:28:57;;;;;;;0.10;0.10;;;6.10;99.90;;;;;;5075798;28;20040;-82
2022/02/16 01:31:24;;;;;;;0.10;0.10;;;6.10;99.90;;;;;;5108636;28;20501;-83
2022/02/16 01:33:51;;;;;;;2.08;0.43;;;6.10;99.90;;;;;;5075958;28;20087;-83
2022/02/16 01:36:17;;;;;;;0.10;0.10;;;6.60;99.90;;;;;;5092886;28;20113;-83
2022/02/16 01:38:44;;;;;;;0.10;0.10;;;6.10;99.90;;;;;;5109197;28;20428;-82
2022/02/16 01:41:15;;;;;;;0.10;0.10;;;6.10;99.90;;;;;;5075705;28;20492;-82
2022/02/16 01:43:50;;;;;;;0.10;0.10;;;6.10;99.90;;;;;;5075664;28;20063;-82
2022/02/16 01:46:18;;;;;;;0.10;0.10;;;6.20;99.90;;;;;;5092615;28;20044;-83
2022/02/16 01:48:45;;;;;;;0.10;0.10;;;6.20;99.90;;;;;;5108283;28;20125;-83
2022/02/16 01:51:12;;;;;;;0.10;0.10;;;6.10;99.90;;;;;;5091918;28;20036;-83
2022/02/16 01:53:39;;;;;;;0.00;0.00;;;6.40;99.90;;;;;;5108361;28;20459;-83
2022/02/16 01:56:06;;;;;;;0.10;0.10;;;6.10;99.90;;;;;;5091989;28;20390;-83
2022/02/16 01:58:34;;;;;;;0.08;0.08;;;6.40;99.90;;;;;;5091734;28;20047;-82
2022/02/16 02:01:03;;;;;;;0.00;0.00;;;6.20;99.90;;;;;;5075770;28;20040;-83
2022/02/16 02:03:30;;;;;;;0.10;0.10;;;6.20;99.90;;;;;;5091948;28;20048;-83
2022/02/16 02:05:58;;;;;;;0.10;0.10;;;6.20;99.90;;;;;;5075562;28;20040;-83
2022/02/16 02:08:26;;;;;;;0.32;0.32;;;6.20;99.90;;;;;;5108309;28;20417;-83
2022/02/16 02:10:55;;;;;;;0.03;0.03;;;6.20;99.90;;;;;;5091788;28;20076;-83
2022/02/16 02:13:21;;;;;;;0.10;0.10;;;6.20;99.90;;;;;;5075469;28;20185;-83
2022/02/16 02:15:48;;;;;;;0.10;0.10;;;6.20;99.90;;;;;;5091716;28;20603;-83
2022/02/16 02:18:16;;;;;;;0.10;0.10;;;6.20;99.90;;;;;;5075102;28;20033;-83
2022/02/16 02:20:43;;;;;;;0.10;0.10;;;6.20;99.90;;;;;;5091470;28;20062;-82
2022/02/16 02:23:11;;;;;;;0.10;0.10;;;6.30;99.90;;;;;;5074806;28;20048;-83
2022/02/16 02:25:49;;;;;;;0.10;0.10;;;6.30;99.90;;;;;;5108088;28;20062;-83
2022/02/16 02:28:18;;;;;;;0.10;0.10;;;6.20;99.90;;;;;;5091426;28;20123;-83
2022/02/16 02:30:46;;;;;;;0.10;0.10;;;6.20;99.90;;;;;;5090739;28;20135;-83
2022/02/16 02:33:15;;;;;;;0.10;0.10;;;6.20;99.90;;;;;;5074787;28;20036;-83
2022/02/16 02:35:42;;;;;;;0.10;0.10;;;6.20;99.90;;;;;;5091217;28;20040;-82
2022/02/16 02:38:09;;;;;;;0.10;0.10;;;6.20;99.90;;;;;;5074820;28;20040;-83
2022/02/16 02:40:35;;;;;;;0.10;0.10;;;6.30;99.90;;;;;;5058328;28;20081;-83
2022/02/16 02:43:02;;;;;;;0.10;0.10;;;6.30;99.90;;;;;;5108005;28;20040;-83
2022/02/16 02:45:29;;;;;;;0.10;0.10;;;6.20;99.90;;;;;;5074588;28;20505;-83
2022/02/16 02:47:56;;;;;;;0.03;0.03;;;6.20;99.90;;;;;;5073862;28;20127;-82
2022/02/16 02:50:23;;;;;;;0.10;0.10;;;6.30;99.90;;;;;;5074390;28;20083;-83
2022/02/16 02:52:49;;;;;;;0.00;0.00;;;6.30;99.90;;;;;;5090539;28;20157;-83
2022/02/16 02:55:17;;;;;;;0.10;0.10;;;6.30;99.90;;;;;;5090796;28;20051;-84
2022/02/16 02:57:43;;;;;;;0.10;0.10;;;6.30;99.90;;;;;;5107170;28;20037;-83
2022/02/16 03:00:12;;;;;;;0.10;0.10;;;6.20;99.90;;;;;;5074602;28;20142;-83
2022/02/16 03:02:39;;;;;;;0.10;0.10;;;6.30;99.90;;;;;;5090762;28;20130;-83
2022/02/16 03:05:06;;;;;;;0.10;0.10;;;6.40;99.90;;;;;;5074394;28;20076;-83
2022/02/16 03:07:33;;;;;;;0.10;0.10;;;6.40;99.90;;;;;;5074604;28;20044;-83
2022/02/16 03:09:59;;;;;;;0.10;0.10;;;6.50;99.90;;;;;;5073727;28;20049;-82
2022/02/16 03:12:28;;;;;;;0.10;0.10;;;6.40;99.90;;;;;;5074952;28;20106;-83
2022/02/16 03:14:55;;;;;;;0.10;0.10;;;6.50;99.90;;;;;;5073621;28;20137;-83
2022/02/16 03:17:24;;;;;;;0.10;0.10;;;6.40;99.90;;;;;;5074249;28;20048;-83
2022/02/16 03:19:51;;;;;;;0.10;0.10;;;6.50;99.90;;;;;;5074374;28;20089;-82
2022/02/16 03:22:19;;;;;;;0.00;0.00;;;6.50;99.90;;;;;;5090748;28;20123;-83
2022/02/16 03:24:46;;;;;;;0.00;0.00;;;6.50;99.90;;;;;;5057374;28;20493;-82
2022/02/16 03:27:13;;;;;;;0.10;0.10;;;6.50;99.90;;;;;;5074063;28;20032;-83
2022/02/16 03:29:40;;;;;;;0.10;0.10;;;6.50;99.90;;;;;;5106979;28;20466;-83
2022/02/16 03:32:07;;;;;;;0.35;0.20;;;6.50;99.90;;;;;;5090454;28;20086;-83
2022/02/16 03:34:33;;;;;;;0.10;0.10;;;6.50;99.90;;;;;;5073255;28;20123;-82
2022/02/16 03:37:00;;;;;;;0.10;0.10;;;6.60;99.90;;;;;;5090145;28;20044;-82
2022/02/16 03:39:27;;;;;;;0.10;0.10;;;6.60;99.90;;;;;;5073609;28;20036;-82
2022/02/16 03:41:53;;;;;;;0.10;0.10;;;6.70;99.90;;;;;;5056798;28;20048;-83
2022/02/16 03:44:20;;;;;;;0.10;0.10;;;6.60;99.90;;;;;;5089944;28;20044;-82
2022/02/16 03:46:48;;;;;;;0.10;0.10;;;6.70;99.90;;;;;;5073422;28;20151;-83
2022/02/16 03:49:14;;;;;;;0.05;0.05;;;6.70;99.90;;;;;;5073631;28;20110;-83
2022/02/16 03:51:41;;;;;;;0.10;0.10;;;6.70;99.90;;;;;;5072877;28;20452;-81
2022/02/16 03:54:07;;;;;;;0.10;0.10;;;6.70;99.90;;;;;;5073601;28;20036;-83
2022/02/16 03:56:34;;;;;;;0.20;0.20;;;7.10;99.90;;;;;;5073227;28;20546;-83
2022/02/16 03:59:01;;;;;;;0.10;0.10;;;6.70;99.90;;;;;;5072982;28;20083;-83
2022/02/16 04:01:28;;;;;;;0.08;0.08;;;6.80;99.90;;;;;;5073289;28;20070;-83
2022/02/16 04:03:55;;;;;;;0.10;0.10;;;6.80;99.90;;;;;;5073368;28;20071;-83
2022/02/16 04:06:22;;;;;;;0.08;0.08;;;6.80;99.90;;;;;;5073132;28;20418;-83
2022/02/16 04:08:49;;;;;;;0.10;0.10;;;6.80;99.90;;;;;;5105959;28;20047;-83
2022/02/16 04:11:21;;;;;;;0.03;0.03;;;6.80;99.90;;;;;;5089849;28;20041;-83
2022/02/16 04:13:48;;;;;;;0.03;0.03;;;6.80;99.90;;;;;;5089650;28;20033;-83
2022/02/16 04:16:15;;;;;;;0.10;0.10;;;6.90;99.90;;;;;;5073327;28;20615;-83
2022/02/16 04:18:41;;;;;;;0.10;0.10;;;6.90;99.90;;;;;;5072829;28;20409;-83
2022/02/16 04:21:08;;;;;;;0.10;0.10;;;6.90;99.90;;;;;;5072503;28;20040;-83
2022/02/16 04:23:35;;;;;;;0.10;0.10;;;7.10;99.90;;;;;;5072724;28;20040;-82
2022/02/16 04:26:02;;;;;;;0.10;0.10;;;6.90;99.90;;;;;;5072864;28;20047;-82
2022/02/16 04:28:28;;;;;;;0.00;0.00;;;6.90;99.90;;;;;;5089371;28;20037;-83
2022/02/16 04:30:55;;;;;;;0.03;0.03;;;7.00;99.90;;;;;;5072277;28;20058;-83
2022/02/16 04:33:22;;;;;;;0.10;0.10;;;7.10;99.90;;;;;;5072805;28;20041;-83
2022/02/16 04:35:48;;;;;;;0.10;0.10;;;6.90;99.90;;;;;;5072862;28;20036;-83
2022/02/16 04:38:16;;;;;;;0.10;0.10;;;7.00;99.90;;;;;;5056484;28;20516;-83
2022/02/16 04:40:43;;;;;;;0.10;0.10;;;7.00;99.90;;;;;;5072628;28;20166;-83
2022/02/16 04:43:10;;;;;;;0.10;0.10;;;7.10;99.90;;;;;;5089041;28;20058;-83
2022/02/16 04:45:37;;;;;;;0.10;0.10;;;7.00;99.90;;;;;;5107024;28;20086;-83
2022/02/16 04:48:04;;;;;;;1.35;0.25;;;7.00;99.90;;;;;;5092990;28;20052;-83
2022/02/16 04:50:32;;;;;;;0.10;0.10;;;7.00;99.90;;;;;;5093591;28;20041;-83
2022/02/16 04:52:58;;;;;;;0.10;0.10;;;7.10;99.90;;;;;;5093542;28;20043;-83
2022/02/16 04:55:26;;;;;;;0.05;0.05;;;7.10;99.90;;;;;;5077152;28;20683;-83
2022/02/16 04:57:53;;;;;;;0.10;0.10;;;7.10;99.90;;;;;;5093285;28;20037;-82
2022/02/16 05:00:23;;;;;;;0.00;0.00;;;7.10;99.90;;;;;;5093228;28;20040;-83
2022/02/16 05:02:49;;;;;;;0.10;0.10;;;7.10;99.90;;;;;;5076418;28;20090;-83
2022/02/16 05:05:16;;;;;;;0.00;0.00;;;7.40;99.90;;;;;;5076809;28;20044;-82
2022/02/16 05:07:43;;;;;;;0.10;0.10;;;7.10;99.90;;;;;;5076361;28;20051;-83
2022/02/16 05:10:10;;;;;;;0.10;0.10;;;7.20;99.90;;;;;;5076474;28;20044;-83
2022/02/16 05:12:37;;;;;;;0.10;0.10;;;7.10;99.90;;;;;;5092969;28;20478;-83
2022/02/16 05:15:05;;;;;;;0.00;0.00;;;7.10;99.90;;;;;;5093027;28;20042;-83
2022/02/16 05:17:32;;;;;;;0.00;0.00;;;7.10;99.90;;;;;;5092874;28;20040;-83
2022/02/16 05:19:59;;;;;;;0.10;0.10;;;7.10;99.90;;;;;;5092663;28;20041;-82
2022/02/16 05:22:25;;;;;;;0.10;0.10;;;7.10;99.90;;;;;;5092795;28;20036;-83
2022/02/16 05:24:52;;;;;;;0.08;0.08;;;7.10;99.90;;;;;;5076063;28;20575;-83
2022/02/16 05:27:19;;;;;;;0.10;0.10;;;7.30;99.90;;;;;;5076086;28;20033;-83
2022/02/16 05:29:46;;;;;;;0.00;0.00;;;7.10;99.90;;;;;;5109503;28;20128;-82
2022/02/16 05:32:12;;;;;;;0.10;0.10;;;7.20;99.90;;;;;;5075748;28;20051;-83
2022/02/16 05:34:39;;;;;;;0.00;0.00;;;7.20;99.90;;;;;;5076337;28;20122;-83
2022/02/16 05:37:06;;;;;;;0.10;0.10;;;7.10;99.90;;;;;;5075941;28;20093;-83
2022/02/16 05:39:33;;;;;;;0.10;0.10;;;7.10;99.90;;;;;;5075732;28;20035;-83
2022/02/16 05:41:59;;;;;;;0.10;0.10;;;7.20;99.90;;;;;;5075837;28;20032;-82
2022/02/16 05:44:26;;;;;;;0.10;0.10;;;7.10;99.90;;;;;;5075899;28;20087;-83
2022/02/16 05:46:53;;;;;;;0.10;0.10;;;7.20;99.90;;;;;;5108900;28;20090;-83
2022/02/16 05:49:19;;;;;;;0.10;0.10;;;7.20;99.90;;;;;;5075094;28;20056;-83
2022/02/16 05:51:46;;;;;;;0.10;0.10;;;7.20;99.90;;;;;;5092247;28;20041;-83
2022/02/16 05:54:13;;;;;;;0.05;0.05;;;7.50;99.90;;;;;;5075461;28;20089;-83
2022/02/16 05:56:40;;;;;;;0.00;0.00;;;7.20;99.90;;;;;;5075649;28;20095;-83
2022/02/16 05:59:06;;;;;;;0.00;0.00;;;7.20;99.90;;;;;;5075017;28;20059;-83
2022/02/16 06:01:33;;;;;;;0.00;0.00;;;7.20;99.90;;;;;;5075470;28;20123;-83
2022/02/16 06:04:00;;;;;;;0.10;0.10;;;7.20;99.90;;;;;;5075209;28;20052;-83
2022/02/16 06:06:27;;;;;;;0.10;0.10;;;7.20;99.90;;;;;;5075938;28;20044;-83
2022/02/16 06:08:53;;;;;;;0.10;0.10;;;7.20;99.90;;;;;;5092325;28;20485;-83
2022/02/16 06:11:20;;;;;;;0.10;0.10;;;7.20;99.90;;;;;;5075126;28;20046;-83
2022/02/16 06:13:47;;;;;;;0.00;0.00;;;7.20;99.90;;;;;;5076701;28;20036;-83
2022/02/16 06:16:14;;;;;;;0.00;0.00;;;7.30;99.90;;;;;;5074976;28;20129;-83
2022/02/16 06:18:40;;;;;;;0.00;0.00;;;7.30;99.90;;;;;;5075271;28;20040;-83
2022/02/16 06:21:08;;;;;;;0.08;0.08;;;7.30;99.90;;;;;;5075157;28;20047;-83
2022/02/16 06:23:35;;;;;;;0.10;0.10;;;7.30;99.90;;;;;;5094416;28;20040;-84
2022/02/16 06:26:02;;;;;;;0.00;0.00;;;7.30;99.90;;;;;;5091307;28;20734;-83
2022/02/16 06:28:29;;;;;;;0.10;0.10;;;7.40;99.90;;;;;;5075269;28;20047;-83
2022/02/16 06:30:56;;;;;;;0.08;0.08;;;7.40;99.90;;;;;;5091503;28;20400;-83
2022/02/16 06:33:22;;;;;;;0.10;0.10;;;7.40;99.90;;;;;;5074627;28;20048;-83
2022/02/16 06:35:49;;;;;;;0.10;0.10;;;7.40;99.90;;;;;;5091463;28;20094;-83
2022/02/16 06:38:16;;;;;;;0.10;0.10;;;7.40;99.90;;;;;;5074570;28;20435;-82
2022/02/16 06:40:43;;;;;;;0.10;0.10;;;7.40;99.90;;;;;;5074697;28;20040;-83
2022/02/16 06:43:09;;;;;;;0.10;0.10;;;7.50;99.90;;;;;;5074401;28;20044;-83
2022/02/16 06:45:36;;;;;;;0.03;0.03;;;7.50;99.90;;;;;;5074909;28;20037;-82
2022/02/16 06:48:03;;;;;;;0.10;0.10;;;7.50;99.90;;;;;;5074362;28;20494;-82
2022/02/16 06:50:30;;;;;;;0.00;0.00;;;7.50;99.90;;;;;;5074370;28;20056;-83
2022/02/16 06:52:56;;;;;;;0.10;0.10;;;7.60;99.90;;;;;;5074892;28;20032;-84
2022/02/16 06:55:23;;;;;;;0.10;0.10;;;7.50;99.90;;;;;;5074440;28;20105;-83
2022/02/16 06:57:50;;;;;;;0.10;0.10;;;7.50;99.90;;;;;;5090849;28;20040;-84
2022/02/16 07:00:17;;;;;;;0.10;0.10;;;7.60;99.90;;;;;;5073677;28;20405;-83
2022/02/16 07:02:47;;;;;;;0.00;0.00;;;7.60;99.90;;;;;;5107186;28;20051;-83
2022/02/16 07:05:15;;;;;;;0.10;0.10;;;7.50;99.90;;;;;;5073589;28;20780;-83
2022/02/16 07:07:41;;;;;;;0.10;0.10;;;7.60;99.90;;;;;;5073803;28;20051;-83
2022/02/16 07:10:09;;;;;;;0.00;0.00;;;7.60;99.90;;;;;;5088527;28;20033;-83
2022/02/16 07:12:36;;;;;;;0.10;0.10;;;7.60;99.90;;;;;;5090213;28;20068;-83
2022/02/16 07:15:10;;;;;;;0.05;0.05;;;7.60;99.90;;;;;;5089963;28;20028;-82
2022/02/16 07:17:41;;;;;;;0.05;0.05;;;7.70;99.90;;;;;;5089975;28;20661;-83
2022/02/16 07:20:10;;;;;;;0.00;0.00;;;7.70;99.90;;;;;;5089679;28;20390;-83
2022/02/16 07:22:42;;;;;;;0.10;0.10;;;7.70;99.90;;;;;;5074361;28;20047;-83
2022/02/16 07:25:09;;;;;;;0.10;0.10;;;7.70;99.90;;;;;;5090029;28;20039;-84
2022/02/16 07:27:36;;;;;;;0.00;0.00;;;7.70;99.90;;;;;;5090707;28;20049;-84
2022/02/16 07:30:08;;;;;;;0.00;0.00;;;7.70;99.90;;;;;;5073924;28;20511;-85
2022/02/16 07:32:39;;;;;;;0.10;0.10;;;7.70;99.90;;;;;;5091860;28;20036;-91
2022/02/16 07:35:07;;;;;;;0.10;0.10;;;7.70;99.90;;;;;;5071645;28;20044;-86
2022/02/16 07:37:34;;;;;;;0.10;0.10;;;7.80;99.90;;;;;;5074375;28;20123;-86
2022/02/16 07:40:04;;;;;;;0.00;0.00;;;7.80;99.90;;;;;;5073120;28;20036;-86
2022/02/16 07:42:31;;;;;;;0.03;0.03;;;7.80;99.90;;;;;;5091144;28;20040;-87
2022/02/16 07:44:58;;;;;;;0.08;0.08;;;7.60;99.90;;;;;;5057682;28;20044;-86
2022/02/16 07:47:25;;;;;;;0.10;0.10;;;7.80;99.90;;;;;;5057639;28;20062;-86
2022/02/16 07:49:51;;;;;;;0.10;0.10;;;7.90;99.90;;;;;;5073442;28;20059;-86
2022/02/16 07:52:18;;;;;;;0.00;0.00;;;7.90;99.90;;;;;;5090193;28;20066;-86
2022/02/16 07:54:45;;;;;;;0.10;0.10;;;7.90;99.90;;;;;;5074696;28;20047;-91
2022/02/16 07:57:12;;;;;;;0.10;0.10;;;8.00;99.90;;;;;;5057874;28;20043;-86
2022/02/16 07:59:38;;;;;;;0.10;0.10;;;8.00;99.90;;;;;;5073621;28;20106;-91
2022/02/16 08:02:08;;;;;;;0.10;0.10;;;8.10;99.90;;;;;;5074133;28;20041;-87
2022/02/16 08:04:34;;;;;;;0.10;0.10;;;8.00;99.90;;;;;;5090295;28;20044;-90
2022/02/16 08:07:01;;;;;;;0.10;0.10;;;8.10;99.90;;;;;;5057960;28;20054;-88
2022/02/16 08:09:28;;;;;;;0.10;0.10;;;8.10;99.90;;;;;;5073820;28;20072;-87
2022/02/16 08:11:55;;;;;;;0.10;0.10;;;8.10;99.90;;;;;;5058118;28;20103;-87
2022/02/16 08:14:26;;;;;;;0.10;0.10;;;8.20;99.90;;;;;;5057724;28;20563;-92
2022/02/16 08:16:55;;;;;;;0.10;0.10;;;8.20;99.90;;;;;;5074928;28;20045;-87
2022/02/16 08:19:23;;;;;;;0.05;0.05;;;8.30;99.90;;;;;;5090757;28;20047;-87
2022/02/16 08:21:50;;;;;;;0.00;0.00;;;8.30;99.90;;;;;;5074914;28;20041;-91
2022/02/16 08:24:17;;;;;;;0.00;0.00;;;8.30;99.90;;;;;;5057924;28;20130;-92
2022/02/16 08:26:44;;;;;;;0.03;0.03;;;8.40;99.90;;;;;;5074898;28;20045;-92
2022/02/16 08:29:11;;;;;;;0.00;0.00;;;8.50;99.90;;;;;;5075335;28;20047;-87
2022/02/16 08:31:37;;;;;;;0.00;0.00;;;8.40;99.90;;;;;;5055394;28;20044;-86
2022/02/16 08:34:04;;;;;;;0.10;0.10;;;8.50;99.90;;;;;;5071506;28;20067;-93
2022/02/16 08:36:31;;;;;;;0.00;0.00;;;8.60;99.90;;;;;;5056144;28;20037;-86
2022/02/16 08:38:58;;;;;;;0.10;0.10;;;8.60;99.90;;;;;;5073010;28;20033;-85
2022/02/16 08:41:24;;;;;;;0.00;0.00;;;8.60;99.90;;;;;;5072586;28;20051;-85
2022/02/16 08:43:51;;;;;;;0.10;0.10;;;8.70;99.90;;;;;;5055192;28;20555;-92
2022/02/16 08:46:18;;;;;;;0.00;0.00;;;8.70;99.90;;;;;;5088387;28;20055;-93
2022/02/16 08:48:45;;;;;;;0.00;0.00;;;8.70;99.90;;;;;;5089334;28;20136;-86
2022/02/16 08:51:13;;;;;;;0.10;0.10;;;8.80;99.90;;;;;;5089182;28;20049;-86
2022/02/16 08:53:40;;;;;;;0.00;0.00;;;8.80;99.90;;;;;;5089424;28;20041;-93
2022/02/16 08:56:07;;;;;;;0.08;0.08;;;8.90;99.90;;;;;;5090316;28;20054;-93
2022/02/16 08:58:33;;;;;;;0.10;0.10;;;8.90;99.90;;;;;;5055447;28;20524;-91
2022/02/16 09:01:01;;;;;;;0.00;0.00;;;8.90;99.90;;;;;;5091430;28;20079;-86
2022/02/16 09:03:31;;;;;;;0.08;0.08;;;9.00;99.90;;;;;;5072672;28;20106;-86
2022/02/16 09:05:59;;;;;;;0.10;0.10;;;9.10;99.90;;;;;;5057170;28;20560;-92
2022/02/16 09:08:25;;;;;;;0.03;0.03;;;9.00;99.90;;;;;;5072374;28;20048;-87
2022/02/16 09:10:52;;;;;;;0.10;0.10;;;9.00;99.90;;;;;;5056482;28;20460;-86
2022/02/16 09:13:19;;;;;;;0.00;0.00;;;9.10;99.90;;;;;;5056699;28;20033;-94
2022/02/16 09:15:46;;;;;;;0.10;0.10;;;9.10;99.90;;;;;;5056061;28;20037;-87
2022/02/16 09:18:17;;;;;;;0.00;0.00;;;9.10;99.90;;;;;;5057670;28;20037;-93
2022/02/16 09:20:46;;;;;;;0.03;0.03;;;9.10;99.90;;;;;;5056714;28;20079;-93
2022/02/16 09:23:17;;;;;;;0.00;0.00;;;9.20;99.90;;;;;;5089728;28;20036;-94
2022/02/16 09:25:44;;;;;;;0.00;0.00;;;9.20;99.90;;;;;;5089175;28;20119;-94
2022/02/16 09:28:12;;;;;;;0.00;0.00;;;9.20;99.90;;;;;;5056761;28;20412;-88
2022/02/16 09:30:39;;;;;;;0.10;0.10;;;9.40;99.90;;;;;;5088834;28;20089;-88
2022/02/16 09:33:05;;;;;;;0.00;0.00;;;9.20;99.90;;;;;;5074974;28;20416;-94
2022/02/16 09:35:32;;;;;;;0.00;0.00;;;9.30;99.90;;;;;;5092886;28;20036;-87
2022/02/16 09:37:59;;;;;;;0.00;0.00;;;9.30;99.90;;;;;;5093307;28;20072;-93
2022/02/16 09:40:26;;;;;;;0.00;0.00;;;9.30;99.90;;;;;;5076774;28;20028;-87
2022/02/16 09:42:54;;;;;;;0.00;0.00;;;9.40;99.90;;;;;;5092523;28;20475;-90
2022/02/16 09:45:27;;;;;;;0.10;0.10;;;9.40;99.90;;;;;;5075983;28;20037;-89
2022/02/16 09:47:54;;;;;;;0.00;0.00;;;9.40;99.90;;;;;;5077535;28;20040;-86
2022/02/16 09:50:21;;;;;;;0.00;0.00;;;9.50;99.90;;;;;;5058774;28;20058;-86
2022/02/16 09:52:48;;;;;;;0.00;0.00;;;9.50;99.90;;;;;;5093000;28;20048;-86
2022/02/16 09:55:16;;;;;;;0.10;0.10;;;9.50;99.90;;;;;;5076018;28;20040;-86
2022/02/16 09:57:43;;;;;;;0.10;0.10;;;9.60;99.90;;;;;;5091887;28;20037;-89
2022/02/16 10:00:12;;;;;;;0.25;0.10;;;9.60;99.90;;;;;;5075626;28;20048;-86
2022/02/16 10:02:40;;;;;;;0.05;0.05;;;9.70;99.90;;;;;;5092573;28;20090;-88
2022/02/16 10:05:11;;;;;;;0.00;0.00;;;9.70;99.90;;;;;;5092449;28;20497;-86
2022/02/16 10:07:43;;;;;;;0.00;0.00;;;9.80;99.90;;;;;;5109446;28;20058;-89
2022/02/16 10:10:21;;;;;;;0.00;0.00;;;9.80;99.90;;;;;;5075288;28;20097;-86
2022/02/16 10:12:52;;;;;;;0.00;0.00;;;10.00;99.90;;;;;;5108677;28;20041;-87
2022/02/16 10:15:21;;;;;;;0.00;0.00;;;10.00;99.90;;;;;;5091769;28;20032;-86
2022/02/16 10:17:49;;;;;;;0.03;0.03;;;10.10;99.90;;;;;;5092421;28;20045;-86
2022/02/16 10:20:20;;;;;;;0.00;0.00;;;10.20;99.90;;;;;;5092359;28;20037;-86
2022/02/16 10:22:49;;;;;;;0.03;0.03;;;10.20;99.90;;;;;;5091735;28;20040;-87
2022/02/16 10:25:28;;;;;;;0.00;0.00;;;10.30;99.90;;;;;;5075667;28;20493;-86
2022/02/16 10:28:25;;;;;;;0.08;0.08;;;10.40;99.90;;;;;;5092450;28;20036;-89
2022/02/16 10:30:56;;;;;;;0.00;0.00;;;10.50;99.90;;;;;;5091816;28;20035;-86
2022/02/16 10:33:43;;;;;;;0.00;0.00;;;10.50;99.90;;;;;;5085066;28;20147;-88
2022/02/16 10:36:14;;;;;;;0.03;0.03;;;10.60;99.90;;;;;;5087538;28;20115;-87
2022/02/16 10:38:53;;;;;;;0.10;0.10;;;10.70;99.90;;;;;;5090663;28;20562;-86
2022/02/16 10:41:30;;;;;;;0.00;0.00;;;10.70;99.90;;;;;;5092042;28;20040;-88
2022/02/16 10:43:58;;;;;;;0.00;0.00;;;10.80;99.90;;;;;;5075842;28;20468;-89
2022/02/16 10:46:27;;;;;;;0.00;0.00;;;10.90;99.90;;;;;;5071693;28;20045;-89
2022/02/16 10:49:13;;;;;;;0.00;0.00;;;11.00;99.90;;;;;;5074351;28;20056;-89
2022/02/16 10:51:42;;;;;;;0.00;0.00;;;11.10;99.90;;;;;;5092539;28;20045;-87
2022/02/16 10:54:17;;;;;;;0.00;0.00;;;11.20;99.90;;;;;;5093389;28;20036;-89
2022/02/16 10:56:45;;;;;;;;;;;11.30;99.90;;;;;;5091675;28;20040;-89
2022/02/16 10:59:12;;;;;;;0.00;0.00;;;11.30;99.90;;;;;;5091880;28;19939;-87
2022/02/16 11:01:40;;;;;;;0.00;0.00;;;11.30;99.90;;;;;;5108323;28;20435;-90
2022/02/16 11:04:08;;;;;;;0.32;0.22;;;11.40;99.90;;;;;;5074824;28;20044;-87
2022/02/16 11:06:47;;;;;;;0.00;0.00;;;11.40;99.90;;;;;;5091925;28;20534;-89
2022/02/16 11:09:18;;;;;;;0.03;0.03;;;11.40;99.90;;;;;;5091783;28;20123;-89
2022/02/16 11:11:49;;;;;;;0.00;0.00;;;11.40;99.90;;;;;;5090785;28;20047;-87
2022/02/16 11:14:17;;;;;;;0.00;0.00;;;11.40;99.90;;;;;;5091514;28;20408;-88
2022/02/16 11:16:48;;;;;;;0.00;0.00;;;11.40;99.90;;;;;;5107953;28;20033;-89
2022/02/16 11:19:24;;;;;;;0.10;0.10;;;11.40;99.90;;;;;;5091259;28;20047;-89
2022/02/16 11:22:01;;;;;;;;;;;11.40;99.90;;;;;;5091576;28;20032;-89
2022/02/16 11:24:31;;;;;;;0.00;0.00;;;11.40;99.90;;;;;;5089904;28;19959;-88
2022/02/16 11:26:58;;;;;;;0.00;0.00;;;11.40;99.90;;;;;;5074900;28;20048;-89
2022/02/16 11:29:44;;;;;;;0.00;0.00;;;11.40;99.90;;;;;;5091310;28;20041;-88
2022/02/16 11:32:19;;;;;;;0.00;0.00;;;11.30;99.90;;;;;;5074835;28;20063;-90
2022/02/16 11:35:05;;;;;;;0.00;0.00;;;11.40;99.90;;;;;;5085903;28;20041;-90
2022/02/16 11:37:38;;;;;;;0.00;0.00;;;11.40;99.90;;;;;;5076809;28;20121;-88
2022/02/16 11:40:07;;;;;;;0.00;0.00;;;11.40;99.90;;;;;;5107209;28;20040;-88
2022/02/16 11:42:48;;;;;;;0.00;0.00;;;11.30;99.90;;;;;;5090952;28;20049;-88
2022/02/16 11:45:17;;;;;;;0.00;0.00;;;11.30;99.90;;;;;;5090849;28;20401;-87
2022/02/16 11:47:45;;;;;;;0.20;0.10;;;11.30;99.90;;;;;;5090614;28;20085;-89
2022/02/16 11:50:14;;;;;;;0.00;0.00;;;11.30;99.90;;;;;;5090372;28;20411;-87
2022/02/16 11:52:50;;;;;;;0.00;0.00;;;11.30;99.90;;;;;;5106792;28;20049;-89
2022/02/16 11:55:26;;;;;;;0.00;0.00;;;11.30;99.90;;;;;;5089974;28;20077;-88
2022/02/16 11:58:02;;;;;;;0.00;0.00;;;11.30;99.90;;;;;;5090338;28;20059;-89
2022/02/16 12:00:33;;;;;;;0.10;0.10;;;11.20;99.90;;;;;;5070344;28;20037;-87
2022/02/16 12:03:05;;;;;;;0.00;0.00;;;11.30;99.90;;;;;;5070051;28;20039;-88
2022/02/16 12:05:57;;;;;;;0.00;0.00;;;11.20;99.90;;;;;;5070260;28;20040;-88
2022/02/16 12:08:29;;;;;;;0.00;0.00;;;11.30;99.90;;;;;;5103346;28;20068;-89
2022/02/16 12:11:20;;;;;;;0.03;0.03;;;11.20;99.90;;;;;;5106819;28;20040;-88
2022/02/16 12:13:51;;;;;;;0.00;0.00;;;11.30;99.90;;;;;;5070615;28;20036;-89
2022/02/16 12:16:25;;;;;;;0.10;0.10;;;11.20;99.90;;;;;;5084987;28;20045;-89
2022/02/16 12:18:52;;;;;;;0.00;0.00;;;11.20;99.90;;;;;;5089658;28;20043;-88
2022/02/16 12:21:49;;;;;;;0.00;0.00;;;11.20;99.90;;;;;;5090563;28;20045;-88
2022/02/16 12:24:19;;;;;;;0.00;0.00;;;11.30;99.90;;;;;;5090440;28;20040;-88
2022/02/16 12:26:48;;;;;;;0.00;0.00;;;11.30;99.90;;;;;;5074081;28;20417;-89
2022/02/16 12:29:17;;;;;;;0.00;0.00;;;11.30;99.90;;;;;;5090555;28;20051;-88
2022/02/16 12:31:45;;;;;;;0.00;0.00;;;11.30;99.90;;;;;;5090194;28;20088;-88
2022/02/16 12:34:15;;;;;;;0.00;0.00;;;11.30;99.90;;;;;;5090306;28;20072;-88
2022/02/16 12:37:00;;;;;;;0.00;0.00;;;11.20;99.90;;;;;;5089904;28;20037;-89
2022/02/16 12:39:29;;;;;;;0.00;0.00;;;11.20;99.90;;;;;;5089998;28;20531;-88
2022/02/16 12:42:10;;;;;;;0.00;0.00;;;11.20;99.90;;;;;;5092343;28;20041;-90
2022/02/16 12:44:38;;;;;;;0.00;0.00;;;11.20;99.90;;;;;;5089544;28;20102;-89
2022/02/16 12:47:07;;;;;;;0.00;0.00;;;11.20;99.90;;;;;;5090197;28;20066;-88
2022/02/16 12:49:35;;;;;;;0.00;0.00;;;11.20;99.90;;;;;;5072090;28;20044;-87
2022/02/16 12:52:03;;;;;;;0.00;0.00;;;11.20;99.90;;;;;;5073008;28;20119;-88
2022/02/16 12:54:34;;;;;;;0.00;0.00;;;11.20;99.90;;;;;;5072826;28;20092;-89
2022/02/16 12:57:06;;;;;;;0.00;0.00;;;11.10;99.90;;;;;;5089603;28;20041;-89
2022/02/16 13:00:46;;;;;;;0.00;0.00;;;11.20;99.90;;;;;;5089767;28;20075;-87
2022/02/16 13:02:28;;;;;;;0.00;0.00;;;11.20;99.90;;;;;;5106361;28;20041;-88